createdAt,value
2019-01-29T00:00:25.984Z,98590.19
2019-01-29T00:02:51.857Z,98588.54
2019-01-29T00:05:17.711Z,98593.82
2019-01-29T00:07:43.660Z,98583.48
2019-01-29T00:10:09.532Z,98593.91
2019-01-29T00:12:35.409Z,98587.02
2019-01-29T00:15:01.592Z,98590.41
2019-01-29T00:17:27.503Z,98588.53
2019-01-29T00:19:53.367Z,98588.53
2019-01-29T00:22:19.379Z,98580.91
2019-01-29T00:24:45.275Z,98577.71
2019-01-29T00:27:11.138Z,98582.52
2019-01-29T00:29:37.041Z,98581.28
2019-01-29T00:32:03.031Z,98582.95
2019-01-29T00:34:28.910Z,98585.66
2019-01-29T00:36:54.790Z,98580.92
2019-01-29T00:39:20.719Z,98586.52
2019-01-29T00:41:46.591Z,98583.52
2019-01-29T00:44:12.588Z,98591.73
2019-01-29T00:46:38.454Z,98596.59
2019-01-29T00:49:04.372Z,98588.91
2019-01-29T00:51:30.244Z,98591.09
2019-01-29T00:53:56.183Z,98592.89
2019-01-29T00:56:25.878Z,98595.05
2019-01-29T00:58:51.809Z,98596.35
2019-01-29T01:01:17.670Z,98594.57
2019-01-29T01:03:43.545Z,98603.64
2019-01-29T01:06:09.472Z,98605.47
2019-01-29T01:08:35.353Z,98611.03
2019-01-29T01:11:01.242Z,98608.52
2019-01-29T01:13:27.116Z,98617.69
2019-01-29T01:15:53.003Z,98623.38
2019-01-29T01:18:18.856Z,98623.38
2019-01-29T01:20:44.745Z,98623.02
2019-01-29T01:23:10.730Z,98628.72
2019-01-29T01:25:36.682Z,98635.80
2019-01-29T01:28:02.561Z,98635.80
2019-01-29T01:30:28.443Z,98637.92
2019-01-29T01:32:54.331Z,98637.52
2019-01-29T01:35:20.201Z,98637.09
2019-01-29T01:37:46.207Z,98643.22
2019-01-29T01:40:15.464Z,98644.51
2019-01-29T01:42:41.370Z,98643.64
2019-01-29T01:45:09.470Z,98642.29
2019-01-29T01:47:35.341Z,98650.56
2019-01-29T01:50:01.218Z,98652.28
2019-01-29T01:52:27.149Z,98652.30
2019-01-29T01:54:53.018Z,98644.60
2019-01-29T01:57:18.967Z,98648.42
2019-01-29T01:59:44.863Z,98649.73
2019-01-29T02:02:10.695Z,98655.77
2019-01-29T02:04:36.606Z,98654.48
2019-01-29T02:07:02.593Z,98653.23
2019-01-29T02:09:28.577Z,98654.94
2019-01-29T02:11:54.519Z,98654.98
2019-01-29T02:14:20.376Z,98654.98
2019-01-29T02:16:46.260Z,98657.60
2019-01-29T02:19:12.292Z,98659.83
2019-01-29T02:21:38.270Z,98658.14
2019-01-29T02:24:04.149Z,98663.80
2019-01-29T02:26:30.046Z,98659.89
2019-01-29T02:28:56.026Z,98654.27
2019-01-29T02:31:21.914Z,98659.83
2019-01-29T02:33:47.762Z,98660.22
2019-01-29T02:36:13.688Z,98666.85
2019-01-29T02:38:39.573Z,98669.45
2019-01-29T02:41:05.766Z,98671.62
2019-01-29T02:43:31.675Z,98671.14
2019-01-29T02:45:57.538Z,98673.36
2019-01-29T02:48:23.417Z,98673.83
2019-01-29T02:50:49.328Z,98677.36
2019-01-29T02:53:18.363Z,98682.47
2019-01-29T02:55:43.021Z,98680.72
2019-01-29T02:58:12.725Z,98687.63
2019-01-29T03:00:38.606Z,98688.99
2019-01-29T03:03:04.478Z,98685.94
2019-01-29T03:05:30.351Z,98694.04
2019-01-29T03:07:56.369Z,98697.91
2019-01-29T03:10:24.382Z,98697.91
2019-01-29T03:12:50.266Z,98700.16
2019-01-29T03:15:18.971Z,98702.38
2019-01-29T03:17:44.862Z,98700.15
2019-01-29T03:20:12.761Z,98702.28
2019-01-29T03:22:38.650Z,98710.96
2019-01-29T03:25:07.338Z,98710.55
2019-01-29T03:27:33.236Z,98712.76
2019-01-29T03:29:59.108Z,98714.47
2019-01-29T03:32:25.034Z,98715.76
2019-01-29T03:34:50.914Z,98710.65
2019-01-29T03:37:16.773Z,98720.59
2019-01-29T03:39:42.624Z,98727.09
2019-01-29T03:42:08.914Z,98732.03
2019-01-29T03:44:34.817Z,98729.35
2019-01-29T03:47:00.685Z,98731.52
2019-01-29T03:49:26.618Z,98737.17
2019-01-29T03:51:52.490Z,98737.17
2019-01-29T03:54:18.380Z,98735.42
2019-01-29T03:56:44.263Z,98745.38
2019-01-29T03:59:10.144Z,98754.52
2019-01-29T04:01:36.023Z,98762.34
2019-01-29T04:04:01.969Z,98762.84
2019-01-29T04:06:27.845Z,98767.98
2019-01-29T04:08:53.761Z,98774.04
2019-01-29T04:11:19.677Z,98776.64
2019-01-29T04:13:45.554Z,98779.30
2019-01-29T04:16:11.426Z,98777.95
2019-01-29T04:18:37.314Z,98790.05
2019-01-29T04:21:03.193Z,98789.25
2019-01-29T04:23:29.173Z,98784.53
2019-01-29T04:25:55.114Z,98786.75
2019-01-29T04:28:21.036Z,98786.75
2019-01-29T04:30:46.912Z,98790.25
2019-01-29T04:33:12.794Z,98786.30
2019-01-29T04:35:38.774Z,98788.50
2019-01-29T04:38:04.758Z,98791.50
2019-01-29T04:40:30.721Z,98787.61
2019-01-29T04:42:56.671Z,98784.16
2019-01-29T04:45:22.582Z,98795.00
2019-01-29T04:47:48.458Z,98795.00
2019-01-29T04:50:16.413Z,98791.10
2019-01-29T04:52:42.268Z,98791.14
2019-01-29T04:55:11.087Z,98801.50
2019-01-29T04:57:36.960Z,98801.94
2019-01-29T05:00:06.673Z,98799.34
2019-01-29T05:02:32.552Z,98798.89
2019-01-29T05:04:58.464Z,98801.50
2019-01-29T05:07:24.401Z,98800.19
2019-01-29T05:09:50.224Z,98806.64
2019-01-29T05:12:16.368Z,98803.09
2019-01-29T05:14:42.276Z,98807.05
2019-01-29T05:17:08.150Z,98795.80
2019-01-29T05:19:34.017Z,98802.74
2019-01-29T05:21:59.900Z,98801.85
2019-01-29T05:24:25.759Z,98801.50
2019-01-29T05:26:51.679Z,98796.78
2019-01-29T05:29:17.578Z,98798.98
2019-01-29T05:31:43.469Z,98807.15
2019-01-29T05:34:09.368Z,98812.79
2019-01-29T05:36:35.237Z,98813.69
2019-01-29T05:39:01.176Z,98811.05
2019-01-29T05:41:27.049Z,98813.16
2019-01-29T05:43:52.920Z,98811.39
2019-01-29T05:46:18.863Z,98823.90
2019-01-29T05:48:44.817Z,98823.05
2019-01-29T05:51:10.804Z,98835.23
2019-01-29T05:53:36.718Z,98830.09
2019-01-29T05:56:02.786Z,98830.13
2019-01-29T05:58:32.734Z,98827.98
2019-01-29T06:00:58.626Z,98831.39
2019-01-29T06:03:24.613Z,98834.88
2019-01-29T06:05:50.638Z,98834.44
2019-01-29T06:08:16.505Z,98840.03
2019-01-29T06:10:42.386Z,98846.09
2019-01-29T06:13:08.320Z,98853.97
2019-01-29T06:15:34.208Z,98845.73
2019-01-29T06:18:00.053Z,98849.99
2019-01-29T06:20:28.195Z,98852.63
2019-01-29T06:22:54.086Z,98857.83
2019-01-29T06:25:19.984Z,98856.53
2019-01-29T06:27:45.890Z,98854.86
2019-01-29T06:30:14.188Z,98851.81
2019-01-29T06:32:40.066Z,98856.49
2019-01-29T06:35:11.555Z,98850.39
2019-01-29T06:37:37.468Z,98857.79
2019-01-29T06:40:07.168Z,98863.48
2019-01-29T06:42:33.053Z,98855.64
2019-01-29T06:44:59.004Z,98864.74
2019-01-29T06:47:24.879Z,98865.19
2019-01-29T06:49:50.793Z,98861.73
2019-01-29T06:52:16.714Z,98865.55
2019-01-29T06:54:42.621Z,98862.14
2019-01-29T06:57:08.526Z,98865.63
2019-01-29T06:59:34.456Z,98871.28
2019-01-29T07:02:01.106Z,98876.88
2019-01-29T07:04:26.982Z,98872.45
2019-01-29T07:06:52.840Z,98874.24
2019-01-29T07:09:18.715Z,98878.59
2019-01-29T07:11:46.515Z,98877.66
2019-01-29T07:14:12.540Z,98879.36
2019-01-29T07:16:40.309Z,98883.71
2019-01-29T07:19:08.237Z,98891.92
2019-01-29T07:21:34.106Z,98895.41
2019-01-29T07:23:59.960Z,98893.70
2019-01-29T07:26:25.889Z,98900.58
2019-01-29T07:28:51.769Z,98908.78
2019-01-29T07:31:17.644Z,98916.98
2019-01-29T07:33:43.523Z,98910.48
2019-01-29T07:36:09.507Z,98910.48
2019-01-29T07:38:35.432Z,98925.19
2019-01-29T07:41:01.323Z,98932.95
2019-01-29T07:43:27.173Z,98927.30
2019-01-29T07:45:53.060Z,98927.24
2019-01-29T07:48:18.922Z,98928.88
2019-01-29T07:50:44.780Z,98928.70
2019-01-29T07:53:10.920Z,98931.76
2019-01-29T07:55:36.932Z,98931.30
2019-01-29T07:58:02.958Z,98929.98
2019-01-29T08:00:29.217Z,98934.63
2019-01-29T08:02:55.339Z,98935.16
2019-01-29T08:05:21.244Z,98938.22
2019-01-29T08:07:47.133Z,98934.63
2019-01-29T08:10:14.439Z,98940.67
2019-01-29T08:12:40.362Z,98939.36
2019-01-29T08:15:17.759Z,98946.72
2019-01-29T08:17:43.739Z,98940.67
2019-01-29T08:20:11.010Z,98946.31
2019-01-29T08:22:36.917Z,98944.04
2019-01-29T08:25:04.391Z,98939.20
2019-01-29T08:27:30.337Z,98939.06
2019-01-29T08:29:56.204Z,98939.74
2019-01-29T08:32:22.073Z,98940.19
2019-01-29T08:34:47.979Z,98938.34
2019-01-29T08:37:13.953Z,98940.70
2019-01-29T08:39:39.830Z,98943.17
2019-01-29T08:42:05.681Z,98942.53
2019-01-29T08:44:31.615Z,98940.67
2019-01-29T08:46:57.503Z,98947.09
2019-01-29T08:49:23.381Z,98946.59
2019-01-29T08:51:49.268Z,98943.38
2019-01-29T08:54:15.173Z,98944.02
2019-01-29T08:56:41.105Z,98943.14
2019-01-29T08:59:06.966Z,98939.97
2019-01-29T09:01:36.396Z,98945.42
2019-01-29T09:04:02.365Z,98941.28
2019-01-29T09:06:28.219Z,98944.26
2019-01-29T09:08:54.099Z,98945.89
2019-01-29T09:11:20.002Z,98942.53
2019-01-29T09:13:45.917Z,98938.19
2019-01-29T09:16:11.812Z,98947.14
2019-01-29T09:18:37.798Z,98934.44
2019-01-29T09:21:03.831Z,98937.53
2019-01-29T09:23:29.670Z,98934.04
2019-01-29T09:25:55.534Z,98930.06
2019-01-29T09:28:23.311Z,98933.19
2019-01-29T09:30:49.276Z,98927.95
2019-01-29T09:33:15.136Z,98936.50
2019-01-29T09:35:41.010Z,98933.69
2019-01-29T09:38:06.947Z,98931.61
2019-01-29T09:40:32.828Z,98937.47
2019-01-29T09:42:58.687Z,98938.78
2019-01-29T09:45:24.590Z,98939.28
2019-01-29T09:47:50.512Z,98934.43
2019-01-29T09:50:23.425Z,98937.78
2019-01-29T09:52:49.493Z,98940.58
2019-01-29T09:55:17.323Z,98946.77
2019-01-29T09:57:43.199Z,98946.61
2019-01-29T10:00:30.290Z,98942.09
2019-01-29T10:02:56.263Z,98935.63
2019-01-29T10:05:22.433Z,98935.63
2019-01-29T10:07:48.281Z,98940.73
2019-01-29T10:10:14.167Z,98940.41
2019-01-29T10:12:40.185Z,98936.67
2019-01-29T10:15:09.925Z,98935.03
2019-01-29T10:17:36.208Z,98928.09
2019-01-29T10:20:04.178Z,98927.63
2019-01-29T10:22:30.131Z,98924.53
2019-01-29T10:24:56.018Z,98920.41
2019-01-29T10:27:21.912Z,98920.22
2019-01-29T10:29:47.807Z,98916.79
2019-01-29T10:32:13.760Z,98917.05
2019-01-29T10:34:39.645Z,98915.77
2019-01-29T10:37:05.574Z,98907.97
2019-01-29T10:39:31.616Z,98909.50
2019-01-29T10:41:57.444Z,98903.89
2019-01-29T10:44:23.365Z,98895.08
2019-01-29T10:46:49.289Z,98894.21
2019-01-29T10:49:15.293Z,98899.67
2019-01-29T10:51:41.151Z,98901.30
2019-01-29T10:54:07.054Z,98900.02
2019-01-29T10:56:34.107Z,98894.15
2019-01-29T10:59:00.388Z,98892.10
2019-01-29T11:01:26.404Z,98894.54
2019-01-29T11:03:52.325Z,98892.61
2019-01-29T11:06:18.224Z,98889.05
2019-01-29T11:08:44.129Z,98889.00
2019-01-29T11:11:10.070Z,98888.62
2019-01-29T11:13:35.977Z,98891.20
2019-01-29T11:16:01.899Z,98881.39
2019-01-29T11:18:27.810Z,98881.77
2019-01-29T11:20:53.681Z,98870.19
2019-01-29T11:23:19.704Z,98874.71
2019-01-29T11:25:45.619Z,98871.05
2019-01-29T11:28:11.536Z,98871.20
2019-01-29T11:30:37.433Z,98867.48
2019-01-29T11:33:03.618Z,98867.48
2019-01-29T11:35:29.499Z,98867.53
2019-01-29T11:37:55.379Z,98864.98
2019-01-29T11:40:26.584Z,98861.69
2019-01-29T11:42:52.587Z,98863.05
2019-01-29T11:45:22.140Z,98868.09
2019-01-29T11:47:48.042Z,98864.33
2019-01-29T11:50:13.957Z,98865.60
2019-01-29T11:52:39.800Z,98865.60
2019-01-29T11:55:08.298Z,98865.41
2019-01-29T11:57:34.222Z,98875.63
2019-01-29T12:00:00.136Z,98867.48
2019-01-29T12:02:28.467Z,98862.22
2019-01-29T12:04:57.855Z,98858.63
2019-01-29T12:07:23.791Z,98858.02
2019-01-29T12:09:49.798Z,98858.50
2019-01-29T12:12:15.773Z,98857.55
2019-01-29T12:14:41.668Z,98851.66
2019-01-29T12:17:07.790Z,98852.21
2019-01-29T12:19:33.677Z,98847.08
2019-01-29T12:21:59.652Z,98855.90
2019-01-29T12:24:25.546Z,98851.33
2019-01-29T12:26:51.398Z,98860.28
2019-01-29T12:29:17.296Z,98843.42
2019-01-29T12:31:43.274Z,98855.49
2019-01-29T12:34:09.255Z,98854.11
2019-01-29T12:36:35.215Z,98848.06
2019-01-29T12:39:01.174Z,98848.04
2019-01-29T12:41:27.058Z,98842.33
2019-01-29T12:43:56.330Z,98844.50
2019-01-29T12:46:22.332Z,98841.28
2019-01-29T12:48:48.247Z,98837.73
2019-01-29T12:51:16.054Z,98839.11
2019-01-29T12:53:42.322Z,98835.42
2019-01-29T12:56:08.181Z,98828.48
2019-01-29T12:58:34.084Z,98832.47
2019-01-29T13:01:00.177Z,98826.13
2019-01-29T13:03:26.099Z,98887.93
2019-01-29T13:05:53.063Z,98894.38
2019-01-29T13:08:19.061Z,98881.97
2019-01-29T13:10:44.949Z,98882.33
2019-01-29T13:13:10.901Z,98860.69
2019-01-29T13:15:36.759Z,98843.55
2019-01-29T13:18:03.267Z,98834.16
2019-01-29T13:20:29.358Z,98817.70
2019-01-29T13:22:55.208Z,98811.64
2019-01-29T13:25:21.084Z,98805.63
2019-01-29T13:27:47.022Z,98794.13
2019-01-29T13:30:16.711Z,98798.41
2019-01-29T13:32:42.585Z,98789.36
2019-01-29T13:35:09.325Z,98793.47
2019-01-29T13:37:35.199Z,98788.48
2019-01-29T13:40:02.333Z,98786.83
2019-01-29T13:42:28.685Z,98788.87
2019-01-29T13:44:54.583Z,98797.45
2019-01-29T13:47:20.856Z,98786.15
2019-01-29T13:49:46.792Z,98789.11
2019-01-29T13:52:12.681Z,98787.80
2019-01-29T13:54:38.547Z,98768.98
2019-01-29T13:57:04.632Z,98782.83
2019-01-29T13:59:30.529Z,98778.14
2019-01-29T14:01:57.732Z,98783.13
2019-01-29T14:04:23.897Z,98776.02
2019-01-29T14:06:49.822Z,98773.64
2019-01-29T14:09:15.673Z,98778.50
2019-01-29T14:11:41.661Z,98771.23
2019-01-29T14:14:07.518Z,98767.58
2019-01-29T14:16:33.397Z,98773.15
2019-01-29T14:18:59.312Z,98767.02
2019-01-29T14:21:25.174Z,98766.42
2019-01-29T14:23:51.128Z,98763.59
2019-01-29T14:26:17.038Z,98755.74
2019-01-29T14:28:42.923Z,98753.98
2019-01-29T14:31:08.800Z,98757.88
2019-01-29T14:33:34.663Z,98754.10
2019-01-29T14:36:00.569Z,98751.34
2019-01-29T14:38:30.561Z,98745.27
2019-01-29T14:40:56.544Z,98750.39
2019-01-29T14:43:25.947Z,98750.58
2019-01-29T14:45:51.802Z,98747.76
2019-01-29T14:48:17.700Z,98744.12
2019-01-29T14:50:43.601Z,98747.19
2019-01-29T14:53:09.463Z,98751.44
2019-01-29T14:55:35.365Z,98747.59
2019-01-29T14:58:01.233Z,98743.97
2019-01-29T15:00:30.122Z,98735.70
2019-01-29T15:02:58.334Z,98748.18
2019-01-29T15:05:25.399Z,98739.14
2019-01-29T15:07:55.297Z,98744.56
2019-01-29T15:10:26.062Z,98737.84
2019-01-29T15:12:52.165Z,98737.85
2019-01-29T15:15:20.427Z,98738.37
2019-01-29T15:17:48.352Z,98741.56
2019-01-29T15:20:14.214Z,98734.19
2019-01-29T15:22:40.085Z,98741.38
2019-01-29T15:25:09.824Z,98738.09
2019-01-29T15:27:35.707Z,98738.11
2019-01-29T15:30:01.615Z,98739.25
2019-01-29T15:32:27.482Z,98737.66
2019-01-29T15:34:53.386Z,98737.96
2019-01-29T15:37:19.281Z,98741.53
2019-01-29T15:39:45.181Z,98738.25
2019-01-29T15:42:11.049Z,98737.98
2019-01-29T15:44:36.936Z,98743.30
2019-01-29T15:47:02.999Z,98736.21
2019-01-29T15:49:28.932Z,98734.19
2019-01-29T15:51:54.797Z,98734.53
2019-01-29T15:54:20.921Z,98732.27
2019-01-29T15:56:46.931Z,98728.89
2019-01-29T15:59:12.755Z,98735.09
2019-01-29T16:01:38.872Z,98735.32
2019-01-29T16:04:04.710Z,98735.78
2019-01-29T16:06:30.823Z,98736.27
2019-01-29T16:08:56.761Z,98736.03
2019-01-29T16:11:22.775Z,98737.38
2019-01-29T16:13:48.698Z,98736.03
2019-01-29T16:16:15.878Z,98728.75
2019-01-29T16:18:41.779Z,98729.95
2019-01-29T16:21:07.690Z,98734.05
2019-01-29T16:23:33.581Z,98734.09
2019-01-29T16:25:59.458Z,98733.23
2019-01-29T16:28:25.471Z,98740.18
2019-01-29T16:30:51.382Z,98738.91
2019-01-29T16:33:17.410Z,98736.67
2019-01-29T16:35:43.309Z,98735.68
2019-01-29T16:38:09.318Z,98742.36
2019-01-29T16:40:37.392Z,98735.36
2019-01-29T16:43:03.259Z,98739.57
2019-01-29T16:45:31.083Z,98739.49
2019-01-29T16:47:58.964Z,98745.17
2019-01-29T16:50:25.159Z,98746.20
2019-01-29T16:52:51.518Z,98747.40
2019-01-29T16:55:18.680Z,98745.19
2019-01-29T16:57:44.600Z,98745.27
2019-01-29T17:00:25.421Z,98749.76
2019-01-29T17:02:51.431Z,98751.92
2019-01-29T17:05:17.331Z,98742.38
2019-01-29T17:07:43.203Z,98751.27
2019-01-29T17:10:12.484Z,98748.94
2019-01-29T17:12:38.373Z,98743.83
2019-01-29T17:15:08.054Z,98754.55
2019-01-29T17:17:33.933Z,98746.02
2019-01-29T17:19:59.896Z,98746.88
2019-01-29T17:22:25.781Z,98747.88
2019-01-29T17:24:51.645Z,98743.43
2019-01-29T17:27:17.604Z,98747.59
2019-01-29T17:29:43.489Z,98745.16
2019-01-29T17:32:09.345Z,98747.15
2019-01-29T17:34:35.292Z,98745.86
2019-01-29T17:37:01.174Z,98741.41
2019-01-29T17:39:27.143Z,98745.95
2019-01-29T17:41:53.037Z,98742.52
2019-01-29T17:44:18.969Z,98750.83
2019-01-29T17:46:44.850Z,98750.55
2019-01-29T17:49:10.887Z,98738.49
2019-01-29T17:51:36.780Z,98747.44
2019-01-29T17:54:02.764Z,98742.80
2019-01-29T17:56:28.703Z,98742.46
2019-01-29T17:58:54.584Z,98743.41
2019-01-29T18:01:20.705Z,98744.02
2019-01-29T18:03:46.583Z,98750.08
2019-01-29T18:06:12.460Z,98747.92
2019-01-29T18:08:38.361Z,98747.53
2019-01-29T18:11:04.231Z,98750.80
2019-01-29T18:13:30.114Z,98753.89
2019-01-29T18:15:55.989Z,98752.17
2019-01-29T18:18:21.933Z,98758.64
2019-01-29T18:20:48.029Z,98750.69
2019-01-29T18:23:14.040Z,98758.18
2019-01-29T18:25:40.042Z,98745.52
2019-01-29T18:28:08.428Z,98745.52
2019-01-29T18:30:34.564Z,98751.11
2019-01-29T18:33:00.497Z,98750.06
2019-01-29T18:35:26.379Z,98751.31
2019-01-29T18:37:52.262Z,98745.45
2019-01-29T18:40:21.589Z,98748.39
2019-01-29T18:42:47.733Z,98750.29
2019-01-29T18:45:13.767Z,98754.80
2019-01-29T18:47:39.584Z,98757.23
2019-01-29T18:50:15.096Z,98747.97
2019-01-29T18:52:41.179Z,98746.91
2019-01-29T18:55:08.593Z,98752.22
2019-01-29T18:57:34.547Z,98752.22
2019-01-29T19:00:00.631Z,98752.38
2019-01-29T19:02:26.522Z,98745.00
2019-01-29T19:04:52.529Z,98744.06
2019-01-29T19:07:18.485Z,98752.48
2019-01-29T19:09:47.858Z,98748.31
2019-01-29T19:12:13.844Z,98750.61
2019-01-29T19:14:39.834Z,98739.89
2019-01-29T19:17:05.814Z,98751.90
2019-01-29T19:19:31.690Z,98752.42
2019-01-29T19:21:57.578Z,98750.06
2019-01-29T19:24:23.443Z,98742.07
2019-01-29T19:26:49.533Z,98744.27
2019-01-29T19:29:15.481Z,98746.48
2019-01-29T19:31:41.323Z,98742.04
2019-01-29T19:34:07.281Z,98744.17
2019-01-29T19:36:33.170Z,98744.66
2019-01-29T19:38:59.205Z,98748.69
2019-01-29T19:41:25.128Z,98742.20
2019-01-29T19:43:51.084Z,98745.28
2019-01-29T19:46:17.097Z,98743.54
2019-01-29T19:48:43.149Z,98740.08
2019-01-29T19:51:09.021Z,98736.85
2019-01-29T19:53:34.944Z,98741.96
2019-01-29T19:56:00.835Z,98746.19
2019-01-29T19:58:32.356Z,98740.66
2019-01-29T20:00:54.597Z,98740.86
2019-01-29T20:03:20.583Z,98741.19
2019-01-29T20:05:46.464Z,98741.19
2019-01-29T20:08:12.450Z,98741.13
2019-01-29T20:10:39.432Z,98738.20
2019-01-29T20:13:05.656Z,98744.06
2019-01-29T20:15:31.895Z,98741.56
2019-01-29T20:17:58.123Z,98742.87
2019-01-29T20:20:27.646Z,98739.39
2019-01-29T20:22:54.336Z,98740.37
2019-01-29T20:25:22.679Z,98739.39
2019-01-29T20:27:49.825Z,98742.86
2019-01-29T20:30:20.107Z,98738.21
2019-01-29T20:32:53.526Z,98729.80
2019-01-29T20:35:17.233Z,98730.38
2019-01-29T20:37:44.493Z,98730.38
2019-01-29T20:40:13.939Z,98732.91
2019-01-29T20:42:41.128Z,98732.91
2019-01-29T20:45:09.899Z,98736.87
2019-01-29T20:47:37.155Z,98736.54
2019-01-29T20:50:07.841Z,98721.22
2019-01-29T20:52:35.178Z,98739.94
2019-01-29T20:55:02.386Z,98727.59
2019-01-29T20:57:29.531Z,98731.75
2019-01-29T20:59:56.495Z,98726.88
2019-01-29T21:02:23.047Z,98729.78
2019-01-29T21:04:49.489Z,98728.87
2019-01-29T21:07:15.884Z,98719.20
2019-01-29T21:09:42.064Z,98721.17
2019-01-29T21:12:08.130Z,98716.79
2019-01-29T21:14:34.021Z,98714.47
2019-01-29T21:16:59.953Z,98709.98
2019-01-29T21:19:25.839Z,98717.69
2019-01-29T21:21:51.706Z,98708.31
2019-01-29T21:24:17.571Z,98708.25
2019-01-29T21:26:43.490Z,98705.61
2019-01-29T21:29:09.495Z,98701.55
2019-01-29T21:31:35.384Z,98698.11
2019-01-29T21:34:01.282Z,98695.45
2019-01-29T21:36:27.149Z,98697.77
2019-01-29T21:38:53.025Z,98692.51
2019-01-29T21:41:18.931Z,98682.68
2019-01-29T21:43:44.831Z,98681.23
2019-01-29T21:46:10.782Z,98678.52
2019-01-29T21:48:36.698Z,98672.70
2019-01-29T21:51:02.556Z,98672.70
2019-01-29T21:53:28.501Z,98668.78
2019-01-29T21:55:54.383Z,98662.76
2019-01-29T21:58:20.445Z,98666.09
2019-01-29T22:00:46.415Z,98662.05
2019-01-29T22:03:13.108Z,98664.52
2019-01-29T22:05:39.022Z,98662.05
2019-01-29T22:08:05.810Z,98660.56
2019-01-29T22:10:31.757Z,98660.79
2019-01-29T22:13:01.129Z,98652.61
2019-01-29T22:15:27.013Z,98651.20
2019-01-29T22:17:52.915Z,98651.30
2019-01-29T22:20:20.326Z,98649.25
2019-01-29T22:22:46.387Z,98645.80
2019-01-29T22:25:16.057Z,98641.94
2019-01-29T22:27:41.937Z,98638.36
2019-01-29T22:30:11.777Z,98622.55
2019-01-29T22:32:37.963Z,98634.50
2019-01-29T22:35:04.394Z,98627.48
2019-01-29T22:37:30.375Z,98608.27
2019-01-29T22:39:56.273Z,98608.27
2019-01-29T22:42:22.452Z,98624.39
2019-01-29T22:44:48.479Z,98618.59
2019-01-29T22:47:14.404Z,98618.59
2019-01-29T22:49:40.399Z,98597.45
2019-01-29T22:52:06.338Z,98608.69
2019-01-29T22:54:32.171Z,98606.35
2019-01-29T22:56:58.052Z,98609.11
2019-01-29T22:59:32.938Z,98595.73
2019-01-29T23:01:51.852Z,98599.48
2019-01-29T23:04:17.788Z,98593.87
2019-01-29T23:06:48.929Z,98594.17
2019-01-29T23:09:14.911Z,98588.16
2019-01-29T23:11:40.759Z,98575.89
2019-01-29T23:14:07.167Z,98583.54
2019-01-29T23:16:33.070Z,98579.27
2019-01-29T23:18:58.959Z,98581.77
2019-01-29T23:21:24.900Z,98581.20
2019-01-29T23:23:50.763Z,98582.56
2019-01-29T23:26:16.628Z,98575.45
2019-01-29T23:28:42.536Z,98586.64
2019-01-29T23:31:08.429Z,98580.03
2019-01-29T23:33:34.334Z,98576.73
2019-01-29T23:36:00.326Z,98580.10
2019-01-29T23:38:26.263Z,98575.06
2019-01-29T23:40:52.134Z,98569.91
2019-01-29T23:43:18.072Z,98571.60
2019-01-29T23:45:44.043Z,98566.38
2019-01-29T23:48:09.917Z,98563.98
2019-01-29T23:50:35.869Z,98563.72
2019-01-29T23:53:01.817Z,98559.80
2019-01-29T23:55:27.691Z,98563.23
2019-01-29T23:57:53.593Z,98560.70
